• Join FlightAware (Why Join?)
  • Login
  • US Flag 
08:54AM EDT


 

Airport Tracker/Info


-or-


 

Live Flight TrackerFlight Track Log ✈ CTL15 ✈ 17-May-2013 ✈ KMGY - KBKL

Flight Track Log - Related Links

Times and Time Zones

All times are in EDT time to prevent confusion due to time zone crossing. See the CTL15 flight status page for this flight to view local times or setup timezone preferences in your user account.

Time Position Orientation Groundspeed Altitude Reporting Facility
EDT Latitude Longitude Course Direction KTS MPH feet Rate Location/Type
08:26PM 39.5972 -84.1853 75° East 139 160 2,500  Level Indianapolis Center
08:27PM 39.6297 -84.1464 43° Northeast 147 169 3,300 660 Climbing Indianapolis Center
08:28PM 39.6453 -84.1236 48° Northeast 144 166 3,700 540 Climbing Indianapolis Center
08:28PM 39.6644 -84.1019 41° Northeast 163 188 3,900 360 Climbing Indianapolis Center
08:29PM 39.6797 -84.0817 46° Northeast 156 180 4,100 420 Climbing Indianapolis Center
08:29PM 39.6928 -84.0622 49° Northeast 168 193 4,300 660 Climbing Indianapolis Center
08:30PM 39.7131 -84.0381 43° Northeast 165 190 4,800 780 Climbing Indianapolis Center
08:30PM 39.7256 -84.0178 51° Northeast 160 184 5,200 780 Climbing Indianapolis Center
08:31PM 39.7431 -83.9986 40° Northeast 160 184 5,600 720 Climbing Indianapolis Center
08:31PM 39.7533 -83.9833 49° Northeast 148 170 5,900 720 Climbing Indianapolis Center
08:32PM 39.7758 -83.9539 45° Northeast 151 174 6,400 540 Climbing Indianapolis Center
08:32PM 39.7792 -83.9461 61° Northeast 142 163 6,500 540 Climbing Indianapolis Center
08:33PM 39.8036 -83.9133 46° Northeast 148 170 7,000 360 Climbing Indianapolis Center
08:33PM 39.8075 -83.9061 55° Northeast 150 173 6,900 -120 Descending Indianapolis Center
08:34PM 39.8419 -83.8644 43° Northeast 183 211 6,900  Level Indianapolis Center
08:35PM 39.8769 -83.8200 44° Northeast 179 206 6,900  Level Indianapolis Center
08:36PM 39.9078 -83.7778 46° Northeast 175 201 7,000 60 Climbing Indianapolis Center
08:36PM 39.9186 -83.7653 42° Northeast 176 203 7,000 -120 Level Indianapolis Center
08:37PM 39.9425 -83.7314 47° Northeast 176 203 6,900  Descending Indianapolis Center
08:37PM 39.9533 -83.7208 37° Northeast 176 203 7,000 60 Climbing Indianapolis Center
08:38PM 39.9778 -83.6883 46° Northeast 174 200 7,000 -60 Level Indianapolis Center
08:39PM 40.0142 -83.6464 41° Northeast 172 198 6,900 -60 Descending Indianapolis Center
08:40PM 40.0572 -83.5922 44° Northeast 172 198 6,900  Level Indianapolis Center
08:41PM 40.0822 -83.5569 47° Northeast 172 198 6,900 60 Level Indianapolis Center
08:41PM 40.0922 -83.5419 49° Northeast 172 198 7,000  Climbing Indianapolis Center
08:42PM 40.1153 -83.5111 46° Northeast 171 197 6,900 -120 Descending Indianapolis Center
08:42PM 40.1247 -83.4994 43° Northeast 171 197 6,900  Level Indianapolis Center
08:43PM 40.1497 -83.4675 44° Northeast 171 197 6,900  Level Indianapolis Center
08:43PM 40.1617 -83.4522 44° Northeast 172 198 6,900 60 Level Indianapolis Center
08:44PM 40.1839 -83.4231 45° Northeast 171 197 7,000  Climbing Indianapolis Center
08:45PM 40.2175 -83.3767 46° Northeast 172 198 6,900 -60 Descending Indianapolis Center
08:46PM 40.2611 -83.3194 45° Northeast 177 204 6,900  Level Indianapolis Center
08:47PM 40.2869 -83.2822 48° Northeast 178 205 7,000  Climbing Indianapolis Center
08:48PM 40.3217 -83.2369 45° Northeast 174 200 7,000 -60 Level Indianapolis Center
08:49PM 40.3567 -83.1903 45° Northeast 176 203 6,900 -60 Descending Indianapolis Center
08:50PM 40.3908 -83.1425 47° Northeast 178 205 6,900  Level Indianapolis Center
08:51PM 40.4319 -83.0883 45° Northeast 178 205 6,900  Level Indianapolis Center
08:52PM 40.4661 -83.0419 46° Northeast 175 201 6,900  Level Indianapolis Center
08:53PM 40.5022 -82.9981 43° Northeast 175 201 6,900  Level Indianapolis Center
08:54PM 40.5311 -82.9542 49° Northeast 178 205 6,900  Level Indianapolis Center
08:55PM 40.5633 -82.8933 55° Northeast 173 199 6,900  Level Indianapolis Center
08:56PM 40.5911 -82.8383 56° Northeast 178 205 6,900  Level Indianapolis Center
08:57PM 40.6183 -82.7856 56° Northeast 174 200 6,900  Level Indianapolis Center
08:58PM 40.6467 -82.7325 55° Northeast 175 201 6,900  Level Indianapolis Center
08:59PM 40.6753 -82.6803 54° Northeast 174 200 6,900  Level Indianapolis Center
09:00PM 40.7036 -82.6267 55° Northeast 176 203 6,900  Level Indianapolis Center